Time;durP1;ratioP1;P1;durP2;ratioP2;P2;SDS_P1;SDS_P2;PMS_P1;PMS_P2;Temp;Humidity;BMP_temperature;BMP_pressure;BME280_temperature;BME280_humidity;BME280_pressure;Samples;Min_cycle;Max_cycle;Signal;HPM_P1;HPM_P2
2021/12/29 00:01:50;;;;;;;67.57;28.67;;;;;;;4.82;100.00;98283.69;5021918;28;20030;-82
2021/12/29 00:04:16;;;;;;;71.85;29.58;;;;;;;4.79;100.00;98277.56;5022755;28;20025;-84
2021/12/29 00:06:41;;;;;;;64.90;28.77;;;;;;;4.81;100.00;98277.53;5037346;28;20026;-84
2021/12/29 00:09:07;;;;;;;62.80;28.25;;;;;;;4.76;100.00;98283.00;5022219;28;20028;-84
2021/12/29 00:11:37;;;;;;;60.38;28.25;;;;;;;4.76;100.00;98283.00;5014565;28;20072;-83
2021/12/29 00:14:02;;;;;;;63.20;28.50;;;;;;;4.91;100.00;98291.25;5032333;28;20026;-84
2021/12/29 00:16:29;;;;;;;65.57;28.85;;;;;;;4.82;100.00;98289.81;5033238;28;20036;-84
2021/12/29 00:18:54;;;;;;;65.80;28.10;;;;;;;4.78;100.00;98291.72;5017680;28;20080;-84
2021/12/29 00:21:19;;;;;;;68.35;28.52;;;;;;;4.79;100.00;98290.78;5033875;28;20026;-84
2021/12/29 00:23:44;;;;;;;60.50;26.98;;;;;;;4.90;100.00;98285.09;5019820;28;20025;-84
2021/12/29 00:26:11;;;;;;;73.07;29.60;;;;;;;4.78;100.00;98291.72;5019171;28;20029;-85
2021/12/29 00:28:37;;;;;;;63.22;28.00;;;;;;;4.87;100.00;98297.59;5035893;28;20054;-86
2021/12/29 00:31:02;;;;;;;60.13;27.33;;;;;;;4.87;100.00;98298.41;5019569;28;20384;-85
2021/12/29 00:33:27;;;;;;;64.97;29.13;;;;;;;4.87;100.00;98302.88;5021927;28;20022;-86
2021/12/29 00:36:01;;;;;;;65.82;28.55;;;;;;;4.86;100.00;98309.06;5022631;28;20034;-84
2021/12/29 00:38:27;;;;;;;69.30;28.50;;;;;;;4.84;100.00;98311.78;5019751;28;20398;-85
2021/12/29 00:40:52;;;;;;;68.85;29.33;;;;;;;4.83;100.00;98323.28;5036918;28;20029;-83
2021/12/29 00:43:17;;;;;;;63.40;28.65;;;;;;;4.89;100.00;98322.19;5022287;28;20057;-85
2021/12/29 00:45:43;;;;;;;76.93;28.70;;;;;;;4.84;100.00;98324.16;5038510;28;20033;-85
2021/12/29 00:48:12;;;;;;;68.47;28.38;;;;;;;4.85;100.00;98324.06;5015508;28;20501;-84
2021/12/29 00:50:39;;;;;;;73.03;30.02;;;;;;;4.86;100.00;98327.59;5016183;28;20394;-85
2021/12/29 00:53:04;;;;;;;82.93;29.48;;;;;;;4.87;100.00;98329.31;5016388;28;20480;-85
2021/12/29 00:55:30;;;;;;;72.43;28.88;;;;;;;4.96;100.00;98330.72;5029572;22;20056;-75
2021/12/29 00:57:55;;;;;;;68.18;26.20;;;;;;;4.95;100.00;98332.50;5014342;28;20048;-74
2021/12/29 01:00:23;;;;;;;81.40;27.92;;;;;;;4.92;100.00;98337.94;5013152;28;20045;-74
2021/12/29 01:02:49;;;;;;;77.43;27.67;;;;;;;4.91;100.00;98336.22;5020553;28;20026;-74
2021/12/29 01:05:16;;;;;;;75.55;26.75;;;;;;;4.95;100.00;98337.81;5014483;28;20053;-75
2021/12/29 01:07:44;;;;;;;68.88;26.95;;;;;;;4.91;100.00;98341.50;5014186;28;20026;-75
2021/12/29 01:10:10;;;;;;;89.38;27.70;;;;;;;4.95;100.00;98343.09;5013993;28;20078;-74
2021/12/29 01:12:36;;;;;;;78.13;26.65;;;;;;;5.01;100.00;98353.44;5014102;28;20052;-74
2021/12/29 01:15:03;;;;;;;80.90;26.80;;;;;;;4.99;100.00;98368.53;5014104;28;20399;-75
2021/12/29 01:17:28;;;;;;;59.33;23.75;;;;;;;5.10;100.00;98369.91;5013996;28;20072;-74
2021/12/29 01:19:54;;;;;;;71.63;25.60;;;;;;;5.07;100.00;98376.16;5013887;28;20438;-74
2021/12/29 01:22:21;;;;;;;66.18;24.45;;;;;;;5.11;100.00;98372.47;5012639;28;20026;-74
2021/12/29 01:24:46;;;;;;;60.53;23.00;;;;;;;5.11;100.00;98383.06;5012615;28;20562;-74
2021/12/29 01:27:13;;;;;;;61.13;24.33;;;;;;;5.11;100.00;98388.34;5013848;28;20100;-74
2021/12/29 01:29:39;;;;;;;61.67;23.40;;;;;;;5.07;100.00;98391.19;5013905;28;20029;-74
2021/12/29 01:32:05;;;;;;;56.65;22.70;;;;;;;5.13;100.00;98385.63;5013748;28;20022;-74
2021/12/29 01:34:31;;;;;;;65.45;23.80;;;;;;;5.10;100.00;98397.19;5012428;28;20064;-74
2021/12/29 01:36:56;;;;;;;59.00;21.90;;;;;;;5.15;100.00;98407.63;5013965;28;20034;-74
2021/12/29 01:39:22;;;;;;;58.30;21.40;;;;;;;5.25;100.00;98410.78;5013653;28;20068;-74
2021/12/29 01:41:51;;;;;;;54.90;21.83;;;;;;;5.20;100.00;98421.53;5014044;28;20022;-75
2021/12/29 01:44:18;;;;;;;58.30;21.38;;;;;;;5.19;100.00;98418.94;5013645;28;20029;-74
2021/12/29 01:46:44;;;;;;;47.10;21.00;;;;;;;5.25;100.00;98427.53;5012272;28;20030;-74
2021/12/29 01:49:10;;;;;;;44.90;20.10;;;;;;;5.33;100.00;98437.81;5013358;28;20029;-74
2021/12/29 01:51:42;;;;;;;40.90;18.48;;;;;;;5.39;100.00;98434.06;5013499;28;20026;-74
2021/12/29 01:54:23;;;;;;;46.15;19.30;;;;;;;5.38;100.00;98439.41;5013484;28;20549;-74
2021/12/29 01:56:51;;;;;;;46.70;19.30;;;;;;;5.46;100.00;98448.78;5013392;28;20037;-74
2021/12/29 01:59:16;;;;;;;46.50;19.25;;;;;;;5.48;100.00;98454.03;5013395;28;20115;-74
2021/12/29 02:01:42;;;;;;;44.05;17.70;;;;;;;5.56;100.00;98456.38;5012938;28;20451;-74
2021/12/29 02:04:08;;;;;;;37.97;16.10;;;;;;;5.52;100.00;98470.63;5013327;28;20100;-75
2021/12/29 02:06:33;;;;;;;39.53;17.15;;;;;;;5.50;100.00;98469.84;5013308;28;20057;-74
2021/12/29 02:08:58;;;;;;;34.80;15.32;;;;;;;5.57;100.00;98471.31;5011861;28;20487;-74
2021/12/29 02:11:29;;;;;;;33.03;14.48;;;;;;;5.53;100.00;98480.31;5014679;28;20489;-74
2021/12/29 02:14:00;;;;;;;33.22;14.27;;;;;;;5.58;100.00;98486.28;5013315;28;20022;-74
2021/12/29 02:16:26;;;;;;;27.92;11.88;;;;;;;5.59;100.00;98501.28;5013276;28;20030;-75
2021/12/29 02:18:53;;;;;;;24.55;11.25;;;;;;;5.66;100.00;98497.47;5014085;28;20092;-75
2021/12/29 02:21:21;;;;;;;24.58;10.60;;;;;;;5.68;100.00;98502.69;5013351;28;20044;-75
2021/12/29 02:24:04;;;;;;;23.60;9.95;;;;;;;5.69;100.00;98507.94;5013224;28;20098;-75
2021/12/29 02:26:32;;;;;;;28.00;10.30;;;;;;;5.75;100.00;98505.94;5013235;28;20104;-74
2021/12/29 02:29:00;;;;;;;21.23;9.00;;;;;;;5.81;100.00;98513.66;5012992;28;20084;-74
2021/12/29 02:31:27;;;;;;;22.17;8.82;;;;;;;5.77;100.00;98525.31;5013133;28;20061;-74
2021/12/29 02:33:52;;;;;;;20.00;8.60;;;;;;;5.77;100.00;98520.03;5013120;28;20022;-74
2021/12/29 02:36:19;;;;;;;17.25;7.75;;;;;;;5.77;100.00;98530.63;5012128;28;20105;-74
2021/12/29 02:38:50;;;;;;;21.67;8.02;;;;;;;5.81;100.00;98542.81;5013042;28;20022;-74
2021/12/29 02:41:16;;;;;;;19.40;7.85;;;;;;;5.79;100.00;98548.16;5013136;28;20104;-74
2021/12/29 02:43:43;;;;;;;20.08;7.65;;;;;;;5.75;100.00;98559.78;5011778;28;20486;-74
2021/12/29 02:46:12;;;;;;;14.05;5.80;;;;;;;5.75;100.00;98553.63;5011719;28;20026;-74
2021/12/29 02:48:51;;;;;;;17.15;6.07;;;;;;;5.78;100.00;98556.16;5012891;28;20022;-74
2021/12/29 02:51:17;;;;;;;14.07;5.53;;;;;;;5.75;100.00;98550.97;5012935;28;20022;-74
2021/12/29 02:53:43;;;;;;;14.48;5.15;;;;;;;5.73;100.00;98556.34;5013038;28;20029;-75
2021/12/29 02:56:08;;;;;;;10.23;4.75;;;;;;;5.77;100.00;98562.41;5013205;28;20082;-74
2021/12/29 02:58:34;;;;;;;13.88;4.70;;;;;;;5.82;100.00;98573.69;5013165;28;20493;-74
2021/12/29 03:01:03;;;;;;;12.75;4.40;;;;;;;5.75;100.00;98574.81;5011482;28;20108;-74
2021/12/29 03:03:33;;;;;;;12.02;3.95;;;;;;;5.74;100.00;98570.44;5012778;28;20080;-74
2021/12/29 03:05:59;;;;;;;11.95;3.85;;;;;;;5.68;100.00;98577.72;5012811;28;20095;-74
2021/12/29 03:08:25;;;;;;;10.93;3.97;;;;;;;5.74;100.00;98584.56;5011491;28;20057;-75
2021/12/29 03:10:53;;;;;;;12.60;3.85;;;;;;;5.69;100.00;98583.88;5012624;28;20033;-74
2021/12/29 03:13:20;;;;;;;14.88;4.07;;;;;;;5.77;100.00;98589.72;5012747;28;20026;-74
2021/12/29 03:15:46;;;;;;;12.27;4.68;;;;;;;5.77;100.00;98594.19;5014375;28;20026;-74
2021/12/29 03:18:11;;;;;;;13.98;3.97;;;;;;;5.68;100.00;98601.53;5016206;28;20395;-74
2021/12/29 03:20:36;;;;;;;9.82;3.92;;;;;;;5.65;100.00;98596.34;5014783;28;20120;-74
2021/12/29 03:23:02;;;;;;;13.27;4.05;;;;;;;5.66;100.00;98598.09;5016216;28;20052;-74
2021/12/29 03:25:28;;;;;;;10.95;4.22;;;;;;;5.64;100.00;98602.59;5016031;28;20044;-74
2021/12/29 03:28:01;;;;;;;14.02;4.80;;;;;;;5.69;100.00;98597.13;5015996;28;20478;-74
2021/12/29 03:30:28;;;;;;;15.20;4.63;;;;;;;5.66;100.00;98613.97;5016173;28;20036;-74
2021/12/29 03:33:03;;;;;;;12.90;4.57;;;;;;;5.67;100.00;98623.63;5016000;28;20026;-74
2021/12/29 03:35:40;;;;;;;18.90;4.78;;;;;;;5.57;100.00;98615.16;5015937;28;20040;-75
2021/12/29 03:38:09;;;;;;;10.52;4.53;;;;;;;5.55;100.00;98614.38;5015981;28;20025;-75
2021/12/29 03:40:35;;;;;;;12.88;4.63;;;;;;;5.70;100.00;98620.88;5015742;28;20017;-74
2021/12/29 03:43:02;;;;;;;12.07;4.80;;;;;;;5.62;100.00;98630.88;5016100;28;20026;-74
2021/12/29 03:45:28;;;;;;;16.80;5.80;;;;;;;5.56;100.00;98623.19;5014403;28;20030;-74
2021/12/29 03:47:53;;;;;;;14.75;4.28;;;;;;;5.66;100.00;98629.88;5015623;28;20018;-75
2021/12/29 03:50:18;;;;;;;17.20;5.38;;;;;;;5.59;100.00;98628.38;5015755;28;20029;-74
2021/12/29 03:52:44;;;;;;;14.77;5.18;;;;;;;5.55;100.00;98630.25;5014320;28;20021;-74
2021/12/29 03:55:10;;;;;;;16.45;5.55;;;;;;;5.56;100.00;98637.28;5015437;28;20038;-74
2021/12/29 03:57:35;;;;;;;15.02;5.00;;;;;;;5.58;100.00;98646.03;5015566;28;20029;-74
2021/12/29 04:00:03;;;;;;;17.80;5.80;;;;;;;5.58;100.00;98645.16;5015521;28;20022;-74
2021/12/29 04:02:29;;;;;;;14.23;5.20;;;;;;;5.56;100.00;98654.94;5015274;28;20109;-74
2021/12/29 04:04:54;;;;;;;16.42;5.72;;;;;;;5.58;100.00;98651.34;5015307;28;20117;-74
2021/12/29 04:07:19;;;;;;;16.83;5.32;;;;;;;5.59;100.00;98665.44;5015286;28;20549;-74
2021/12/29 04:09:45;;;;;;;18.05;5.95;;;;;;;5.61;100.00;98666.25;5013979;28;20076;-74
2021/12/29 04:12:10;;;;;;;14.23;5.68;;;;;;;5.63;100.00;98679.41;5015835;28;20025;-74
2021/12/29 04:14:36;;;;;;;17.90;5.80;;;;;;;5.69;100.00;98676.56;5013936;28;20025;-74
2021/12/29 04:17:09;;;;;;;16.35;5.85;;;;;;;5.65;100.00;98680.22;5015059;28;20022;-74
2021/12/29 04:22:20;;;;;;;17.05;6.35;;;;;;;5.65;100.00;98691.69;5015067;28;20080;-74
2021/12/29 04:24:45;;;;;;;16.80;5.97;;;;;;;5.66;100.00;98690.78;5014541;28;20029;-74
2021/12/29 04:27:10;;;;;;;12.43;5.57;;;;;;;5.72;100.00;98686.19;5014853;28;20022;-74
2021/12/29 04:29:35;;;;;;;10.63;5.00;;;;;;;5.69;100.00;98703.06;5014976;28;20030;-74
2021/12/29 04:32:01;;;;;;;13.05;5.03;;;;;;;5.75;100.00;98697.50;5014869;28;20440;-74
2021/12/29 04:34:26;;;;;;;13.02;5.15;;;;;;;5.74;100.00;98710.81;5013534;28;20414;-74
2021/12/29 04:36:51;;;;;;;13.98;5.00;;;;;;;5.76;100.00;98703.69;5013468;28;20029;-74
2021/12/29 04:39:17;;;;;;;14.68;5.05;;;;;;;5.70;100.00;98710.94;5014645;28;20022;-74
2021/12/29 04:41:42;;;;;;;16.88;5.78;;;;;;;5.75;100.00;98717.84;5014909;28;20021;-75
2021/12/29 04:44:07;;;;;;;13.48;5.03;;;;;;;5.76;100.00;98722.22;5014634;28;20021;-75
2021/12/29 04:46:38;;;;;;;11.93;4.63;;;;;;;5.82;100.00;98727.31;5014606;28;20030;-75
2021/12/29 04:49:08;;;;;;;12.10;4.78;;;;;;;5.86;100.00;98734.22;5014600;28;20045;-75
2021/12/29 04:51:35;;;;;;;10.50;4.63;;;;;;;5.80;100.00;98734.44;5013160;28;20545;-75
2021/12/29 04:54:07;;;;;;;13.05;4.43;;;;;;;5.77;100.00;98746.00;5013173;28;20029;-75
2021/12/29 04:56:33;;;;;;;11.23;4.55;;;;;;;5.90;100.00;98749.06;5014347;28;20029;-75
2021/12/29 04:58:58;;;;;;;9.73;4.28;;;;;;;5.87;100.00;98754.50;5014247;28;20036;-75
2021/12/29 05:01:24;;;;;;;11.82;4.50;;;;;;;5.85;100.00;98755.47;5014274;28;20025;-74
2021/12/29 05:03:49;;;;;;;10.05;3.53;;;;;;;5.84;100.00;98754.63;5013024;28;20088;-75
2021/12/29 05:08:40;;;;;;;8.30;3.75;;;;;;;5.87;100.00;98759.81;5014082;28;20040;-75
2021/12/29 05:11:11;;;;;;;9.93;3.70;;;;;;;5.93;100.00;98758.69;5014161;28;20455;-75
2021/12/29 05:13:39;;;;;;;10.20;3.45;;;;;;;5.89;100.00;98757.97;5014114;28;20499;-75
2021/12/29 05:16:05;;;;;;;10.55;4.05;;;;;;;5.95;100.00;98756.88;5014018;28;20034;-75
2021/12/29 05:18:32;;;;;;;9.43;3.83;;;;;;;5.93;100.00;98764.00;5014029;28;20072;-75
2021/12/29 05:20:59;;;;;;;8.25;3.65;;;;;;;5.92;100.00;98773.75;5012631;28;20022;-75
2021/12/29 05:23:25;;;;;;;11.65;3.78;;;;;;;5.90;100.00;98775.56;5012726;28;20079;-75
2021/12/29 05:25:52;;;;;;;10.60;4.10;;;;;;;5.99;100.00;98774.41;5013950;28;20028;-75
2021/12/29 05:28:18;;;;;;;11.75;4.65;;;;;;;5.97;100.00;98772.72;5012680;28;20026;-76
2021/12/29 05:30:44;;;;;;;12.35;5.05;;;;;;;6.05;100.00;98786.56;5013534;28;20449;-76
2021/12/29 05:33:10;;;;;;;17.00;8.15;;;;;;;6.08;100.00;98790.94;5013695;28;20483;-76
2021/12/29 05:35:35;;;;;;;24.10;10.05;;;;;;;6.09;100.00;98796.16;5012474;28;20032;-75
2021/12/29 05:38:01;;;;;;;18.50;7.43;;;;;;;6.05;100.00;98794.53;5013038;28;20029;-75
2021/12/29 05:40:27;;;;;;;13.50;4.93;;;;;;;6.19;100.00;98801.13;5013614;28;20018;-75
2021/12/29 05:42:53;;;;;;;13.25;4.63;;;;;;;6.07;100.00;98798.00;5013658;28;20026;-75
2021/12/29 05:45:18;;;;;;;13.77;5.10;;;;;;;6.14;100.00;98810.13;5012410;28;20160;-75
2021/12/29 05:47:45;;;;;;;15.23;5.65;;;;;;;6.03;100.00;98807.81;5013607;28;20426;-75
2021/12/29 05:50:17;;;;;;;18.52;5.82;;;;;;;6.11;100.00;98820.81;5013332;28;20033;-75
2021/12/29 05:52:42;;;;;;;19.77;6.45;;;;;;;6.11;100.00;98815.50;5013519;28;20152;-75
2021/12/29 05:55:09;;;;;;;21.92;7.18;;;;;;;6.11;100.00;98819.94;5013606;28;20117;-75
2021/12/29 05:57:34;;;;;;;19.00;6.90;;;;;;;6.10;100.00;98824.41;5012239;28;20034;-75
2021/12/29 06:00:00;;;;;;;24.58;7.82;;;;;;;6.14;100.00;98825.16;5013438;28;20115;-75
2021/12/29 06:02:25;;;;;;;20.48;7.05;;;;;;;6.20;100.00;98824.06;5013698;28;20429;-75
2021/12/29 06:04:50;;;;;;;23.83;7.95;;;;;;;6.16;100.00;98820.66;5012309;28;20026;-75
2021/12/29 06:07:16;;;;;;;23.00;8.32;;;;;;;6.21;100.00;98825.81;5013377;28;20030;-76
2021/12/29 06:09:41;;;;;;;19.50;7.28;;;;;;;6.25;100.00;98843.31;5013522;28;20032;-75
2021/12/29 06:12:08;;;;;;;23.90;8.82;;;;;;;6.18;100.00;98839.16;5013638;28;20471;-75
2021/12/29 06:14:34;;;;;;;24.25;8.68;;;;;;;6.22;100.00;98844.31;5013317;28;20483;-75
2021/12/29 06:16:59;;;;;;;21.65;8.52;;;;;;;6.21;100.00;98858.47;5013246;28;20022;-75
2021/12/29 06:19:25;;;;;;;21.92;8.15;;;;;;;6.24;100.00;98852.19;5013397;28;20029;-75
2021/12/29 06:21:50;;;;;;;26.27;8.68;;;;;;;6.19;100.00;98848.81;5013145;28;20061;-74
2021/12/29 06:24:16;;;;;;;22.33;8.52;;;;;;;6.25;100.00;98862.75;5013499;28;20033;-74
2021/12/29 06:26:41;;;;;;;23.35;8.23;;;;;;;6.23;100.00;98866.38;5013464;28;20032;-75
2021/12/29 06:29:06;;;;;;;30.30;9.93;;;;;;;6.19;100.00;98864.72;5013038;28;20110;-75
2021/12/29 06:31:33;;;;;;;20.60;8.07;;;;;;;6.20;100.00;98887.69;5013552;28;20445;-74
2021/12/29 06:33:59;;;;;;;24.27;8.55;;;;;;;6.27;100.00;98875.94;5013417;28;20021;-75
2021/12/29 06:36:24;;;;;;;22.75;8.85;;;;;;;6.28;100.00;98896.25;5013309;28;20037;-74
2021/12/29 06:38:49;;;;;;;22.35;9.40;;;;;;;6.24;100.00;98902.56;5012997;28;20479;-74
2021/12/29 06:41:15;;;;;;;22.23;9.38;;;;;;;6.30;100.00;98907.66;5013146;28;20029;-75
2021/12/29 06:43:40;;;;;;;21.95;8.75;;;;;;;6.20;100.00;98907.09;5013039;28;20021;-75
2021/12/29 06:46:05;;;;;;;26.45;9.00;;;;;;;6.20;100.00;98914.19;5013012;28;20026;-75
2021/12/29 06:48:31;;;;;;;21.38;8.35;;;;;;;6.27;100.00;98915.69;5014115;28;20076;-75
2021/12/29 06:50:56;;;;;;;21.10;8.25;;;;;;;6.24;100.00;98913.16;5016629;28;20398;-75
2021/12/29 06:53:21;;;;;;;24.40;9.18;;;;;;;6.21;100.00;98922.06;5016692;28;20026;-75
2021/12/29 06:55:47;;;;;;;27.08;9.07;;;;;;;6.26;100.00;98929.91;5049468;22;20042;-85
2021/12/29 06:58:12;;;;;;;22.23;8.38;;;;;;;6.25;100.00;98923.72;5035180;28;20486;-84
2021/12/29 07:00:39;;;;;;;22.60;9.07;;;;;;;6.29;100.00;98924.47;5034544;28;20025;-84
2021/12/29 07:03:05;;;;;;;23.15;8.63;;;;;;;6.17;100.00;98935.50;5018013;28;20094;-85
2021/12/29 07:05:30;;;;;;;26.10;10.57;;;;;;;6.21;100.00;98942.44;5034367;28;20160;-85
2021/12/29 07:07:56;;;;;;;25.00;10.07;;;;;;;6.29;100.00;98944.84;5034498;28;20164;-85
2021/12/29 07:10:21;;;;;;;23.13;9.02;;;;;;;6.24;100.00;98942.31;5019598;28;20050;-84
2021/12/29 07:12:48;;;;;;;23.15;8.65;;;;;;;6.19;100.00;98954.84;5034768;28;20470;-84
2021/12/29 07:15:14;;;;;;;21.38;9.23;;;;;;;6.17;100.00;98948.75;5018490;28;20542;-86
2021/12/29 07:17:40;;;;;;;23.90;8.90;;;;;;;6.19;100.00;98952.19;5033776;28;20033;-82
2021/12/29 07:20:06;;;;;;;22.58;9.00;;;;;;;6.24;100.00;98964.41;5018743;28;20471;-85
2021/12/29 07:22:32;;;;;;;18.45;8.50;;;;;;;6.23;100.00;98972.41;5034457;28;20025;-85
2021/12/29 07:24:57;;;;;;;21.65;7.78;;;;;;;6.16;100.00;98981.50;5019687;28;20026;-83
2021/12/29 07:27:22;;;;;;;19.73;7.95;;;;;;;6.21;100.00;98979.56;5018611;28;20021;-84
2021/12/29 07:29:48;;;;;;;19.05;7.43;;;;;;;6.24;100.00;98971.47;5018815;28;20471;-85
2021/12/29 07:32:14;;;;;;;18.60;8.38;;;;;;;6.20;100.00;98994.59;5018555;28;20022;-85
2021/12/29 07:34:39;;;;;;;18.75;7.35;;;;;;;6.18;100.00;98990.25;5018289;28;20085;-85
2021/12/29 07:37:05;;;;;;;14.85;7.07;;;;;;;6.25;100.00;98997.06;5017778;28;20032;-86
2021/12/29 07:39:30;;;;;;;19.48;7.35;;;;;;;6.14;100.00;99006.25;5017168;28;20026;-85
2021/12/29 07:41:55;;;;;;;16.73;7.22;;;;;;;6.19;100.00;99008.75;5033508;28;20104;-84
2021/12/29 07:44:22;;;;;;;13.73;6.28;;;;;;;6.20;100.00;99012.25;5025131;28;20093;-85
2021/12/29 07:46:52;;;;;;;16.52;7.07;;;;;;;6.17;100.00;99009.72;5024031;28;20026;-85
2021/12/29 07:49:18;;;;;;;14.73;6.65;;;;;;;6.23;100.00;99022.78;5023039;28;20100;-85
2021/12/29 07:51:44;;;;;;;13.48;6.45;;;;;;;6.27;100.00;99027.06;5017592;28;20022;-84
2021/12/29 07:54:10;;;;;;;12.63;5.93;;;;;;;6.25;100.00;99036.84;5017917;28;20077;-85
2021/12/29 07:56:36;;;;;;;22.10;6.90;;;;;;;6.13;100.00;99033.66;5016343;28;20032;-84
2021/12/29 07:59:02;;;;;;;11.23;5.32;;;;;;;6.19;100.00;99029.06;5015727;28;20018;-84
2021/12/29 08:01:28;;;;;;;13.88;6.05;;;;;;;6.25;100.00;99027.09;5016882;28;20064;-85
2021/12/29 08:03:53;;;;;;;16.77;6.05;;;;;;;6.29;100.00;99038.47;5017085;28;20022;-84
2021/12/29 08:06:19;;;;;;;13.15;5.82;;;;;;;6.20;100.00;99050.25;5017257;28;20021;-84
2021/12/29 08:08:45;;;;;;;12.07;5.60;;;;;;;6.22;100.00;99051.06;5015912;28;20026;-84
2021/12/29 08:11:10;;;;;;;13.15;5.88;;;;;;;6.20;100.00;99047.59;5016379;28;20395;-84
2021/12/29 08:13:36;;;;;;;12.73;5.82;;;;;;;6.36;100.00;99047.09;5017779;28;20459;-84
2021/12/29 08:16:02;;;;;;;11.93;5.45;;;;;;;6.31;100.00;99049.91;5020681;28;20045;-85
2021/12/29 08:18:27;;;;;;;12.90;6.18;;;;;;;6.32;100.00;99051.63;5020246;28;20065;-85
2021/12/29 08:20:58;;;;;;;11.43;6.38;;;;;;;6.29;100.00;99059.66;5015246;28;20029;-82
2021/12/29 08:23:24;;;;;;;14.15;5.90;;;;;;;6.30;100.00;99069.38;5016649;28;20026;-82
2021/12/29 08:25:49;;;;;;;12.82;6.28;;;;;;;6.34;100.00;99071.00;5015533;28;20044;-83
2021/12/29 08:28:15;;;;;;;13.55;6.53;;;;;;;6.28;100.00;99070.34;5015516;28;20022;-85
2021/12/29 08:30:40;;;;;;;14.68;6.53;;;;;;;6.30;100.00;99074.69;5015204;28;20022;-85
2021/12/29 08:33:06;;;;;;;19.67;6.30;;;;;;;6.30;100.00;99082.63;5014458;28;20018;-85
2021/12/29 08:35:32;;;;;;;12.90;6.13;;;;;;;6.26;100.00;99083.66;5033020;28;20128;-85
2021/12/29 08:37:57;;;;;;;13.02;6.00;;;;;;;6.22;100.00;99082.88;5030998;28;20113;-86
2021/12/29 08:40:24;;;;;;;13.43;6.28;;;;;;;6.24;100.00;99080.16;5014182;28;20042;-86
2021/12/29 08:42:49;;;;;;;13.73;6.22;;;;;;;6.32;100.00;99080.78;5030686;28;20025;-86
2021/12/29 08:45:21;;;;;;;12.90;6.03;;;;;;;6.28;100.00;99080.94;5013943;28;20029;-86
2021/12/29 08:47:47;;;;;;;17.00;6.60;;;;;;;6.22;100.00;99076.69;5014006;28;20089;-85
2021/12/29 08:50:15;;;;;;;13.88;6.38;;;;;;;6.23;100.00;99073.13;5030469;28;20022;-86
2021/12/29 08:52:41;;;;;;;15.02;6.95;;;;;;;6.28;100.00;99080.94;5030303;28;20160;-86
2021/12/29 08:55:12;;;;;;;15.80;6.32;;;;;;;6.24;100.00;99080.16;5030603;28;20022;-85
2021/12/29 08:57:40;;;;;;;15.32;7.20;;;;;;;6.26;100.00;99083.66;5013609;28;20112;-84
2021/12/29 09:00:11;;;;;;;14.77;6.70;;;;;;;6.21;100.00;99090.88;5013483;28;20108;-85
2021/12/29 09:02:37;;;;;;;14.68;6.07;;;;;;;6.24;100.00;99086.34;5030297;28;20018;-86
2021/12/29 09:05:03;;;;;;;16.33;6.32;;;;;;;6.23;100.00;99089.03;5013553;28;20441;-85
2021/12/29 09:07:31;;;;;;;15.98;6.78;;;;;;;6.20;100.00;99092.66;5029948;28;20028;-85
2021/12/29 09:09:57;;;;;;;15.05;6.88;;;;;;;6.21;100.00;99090.88;5015360;28;20022;-85
2021/12/29 09:12:22;;;;;;;17.90;6.97;;;;;;;6.34;100.00;99091.38;5029848;28;20067;-85
2021/12/29 09:14:48;;;;;;;14.05;6.88;;;;;;;6.26;100.00;99097.75;5029896;28;20045;-85
2021/12/29 09:17:15;;;;;;;20.33;7.65;;;;;;;6.34;100.00;99099.31;5013062;28;20036;-86
2021/12/29 09:19:41;;;;;;;17.48;6.90;;;;;;;6.31;100.00;99097.63;5013632;28;20017;-86
2021/12/29 09:22:12;;;;;;;17.95;7.00;;;;;;;6.32;100.00;99088.75;5013096;28;20026;-85
2021/12/29 09:24:38;;;;;;;16.95;7.40;;;;;;;6.34;100.00;99089.56;5013920;28;20459;-85
2021/12/29 09:27:04;;;;;;;19.60;7.75;;;;;;;6.38;100.00;99093.00;5032289;28;20064;-87
2021/12/29 09:29:32;;;;;;;14.52;6.78;;;;;;;6.41;100.00;99099.97;5029679;28;20030;-86
2021/12/29 09:32:06;;;;;;;15.65;6.90;;;;;;;6.56;100.00;99096.84;5014652;28;20108;-86
2021/12/29 09:34:33;;;;;;;15.90;7.10;;;;;;;6.42;100.00;99101.69;5030663;28;20022;-87
2021/12/29 09:37:00;;;;;;;18.48;7.85;;;;;;;6.49;100.00;99100.59;5029204;28;20030;-87
2021/12/29 09:39:34;;;;;;;20.85;7.88;;;;;;;6.58;100.00;99095.00;5014351;28;20113;-88
2021/12/29 09:42:00;;;;;;;20.58;7.45;;;;;;;6.54;100.00;99103.97;5013866;28;20071;-88
2021/12/29 09:44:26;;;;;;;22.30;8.40;;;;;;;6.50;100.00;99112.94;5029123;28;20554;-88
2021/12/29 09:46:53;;;;;;;19.80;7.90;;;;;;;6.65;100.00;99105.41;5029356;28;20030;-87
2021/12/29 09:49:19;;;;;;;22.35;9.18;;;;;;;6.57;100.00;99108.31;5014513;28;20104;-87
2021/12/29 09:51:44;;;;;;;19.13;8.35;;;;;;;6.57;100.00;99119.78;5014321;28;20048;-87
2021/12/29 09:54:10;;;;;;;24.85;8.73;;;;;;;6.63;100.00;99139.94;5014223;28;20129;-87
2021/12/29 09:56:36;;;;;;;17.73;7.57;;;;;;;6.67;100.00;99140.72;5014120;28;20030;-87
2021/12/29 09:59:18;;;;;;;18.77;7.53;;;;;;;6.64;100.00;99146.09;5029477;28;20062;-88
2021/12/29 10:01:47;;;;;;;21.48;8.30;;;;;;;6.65;100.00;99147.84;5030003;28;20030;-86
2021/12/29 10:04:14;;;;;;;18.83;7.85;;;;;;;6.68;100.00;99139.78;5013967;28;20045;-85
2021/12/29 10:06:40;;;;;;;16.30;7.85;;;;;;;6.56;100.00;99144.56;5029122;28;20483;-86
2021/12/29 10:09:14;;;;;;;18.92;7.68;;;;;;;6.67;100.00;99146.03;5012841;28;20026;-86
2021/12/29 10:11:46;;;;;;;15.38;7.20;;;;;;;6.67;100.00;99156.63;5012916;28;20065;-88
2021/12/29 10:14:15;;;;;;;18.02;7.82;;;;;;;6.59;100.00;99163.06;5029986;28;20018;-88
2021/12/29 10:16:48;;;;;;;19.40;7.95;;;;;;;6.59;100.00;99164.84;5029389;28;20029;-87
2021/12/29 10:19:17;;;;;;;19.70;8.37;;;;;;;6.67;100.00;99165.47;5029938;28;20462;-87
2021/12/29 10:21:50;;;;;;;17.45;7.68;;;;;;;6.59;100.00;99160.41;5013176;28;20263;-86
2021/12/29 10:24:27;;;;;;;17.73;7.53;;;;;;;6.59;100.00;99167.47;5015956;28;20098;-87
2021/12/29 10:27:03;;;;;;;18.95;7.72;;;;;;;6.66;100.00;99166.38;5018230;28;20038;-88
2021/12/29 10:29:28;;;;;;;22.02;8.68;;;;;;;6.59;100.00;99165.72;5016684;28;20479;-87
2021/12/29 10:32:02;;;;;;;20.27;8.60;;;;;;;6.66;100.00;99170.81;5016630;28;20084;-87
2021/12/29 10:34:30;;;;;;;21.42;8.52;;;;;;;6.61;100.00;99167.44;5033886;28;20056;-86
2021/12/29 10:37:09;;;;;;;20.25;8.35;;;;;;;6.69;100.00;99160.09;5017505;28;20065;-89
2021/12/29 10:39:43;;;;;;;15.57;7.50;;;;;;;6.67;100.00;99167.25;5017240;28;20026;-89
2021/12/29 10:42:18;;;;;;;19.55;7.90;;;;;;;6.66;100.00;99154.88;5033488;28;20479;-88
2021/12/29 10:44:49;;;;;;;20.88;8.07;;;;;;;6.69;100.00;99158.31;5018543;28;20049;-86
2021/12/29 10:47:20;;;;;;;19.85;8.60;;;;;;;6.65;100.00;99153.16;5016690;28;20034;-85
2021/12/29 10:50:11;;;;;;;20.33;7.85;;;;;;;6.78;100.00;99165.09;5033683;28;20467;-84
2021/12/29 10:52:55;;;;;;;20.08;7.95;;;;;;;6.86;100.00;99164.84;5017763;28;20418;-89
2021/12/29 10:55:35;;;;;;;20.60;8.57;;;;;;;6.85;100.00;99164.91;5015820;28;20054;-87
2021/12/29 10:58:13;;;;;;;16.75;7.97;;;;;;;6.77;100.00;99167.81;5016994;28;20068;-88
2021/12/29 11:00:42;;;;;;;16.88;9.18;;;;;;;6.81;100.00;99164.13;5017836;28;20439;-85
2021/12/29 11:03:35;;;;;;;22.17;10.15;;;;;;;6.87;100.00;99163.06;5017652;28;20029;-89
2021/12/29 11:06:04;;;;;;;26.80;8.93;;;;;;;6.79;100.00;99165.97;5014090;28;20049;-89
2021/12/29 11:08:32;;;;;;;22.20;8.75;;;;;;;6.77;100.00;99162.50;5016421;28;20112;-89
2021/12/29 11:11:10;;;;;;;21.58;8.63;;;;;;;6.86;100.00;99156.00;5017163;28;20026;-90
2021/12/29 11:13:36;;;;;;;17.27;7.93;;;;;;;6.97;100.00;99153.88;5032752;28;20038;-87
2021/12/29 11:16:18;;;;;;;18.48;8.43;;;;;;;6.93;100.00;99152.25;5032093;28;20026;-90
2021/12/29 11:18:51;;;;;;;17.60;8.10;;;;;;;6.96;100.00;99157.44;5017087;28;20133;-86
2021/12/29 11:21:29;;;;;;;15.82;6.93;;;;;;;6.96;100.00;99164.56;5017203;28;20124;-86
2021/12/29 11:24:29;;;;;;;17.98;7.38;;;;;;;6.97;100.00;99161.84;5016813;28;20033;-88
2021/12/29 11:26:58;;;;;;;16.33;7.22;;;;;;;6.97;100.00;99159.19;5031443;28;20054;-87
2021/12/29 11:29:24;;;;;;;19.25;8.50;;;;;;;6.98;100.00;99160.94;5015988;28;20391;-87
2021/12/29 11:32:04;;;;;;;14.50;7.60;;;;;;;7.08;100.00;99173.88;5031908;28;20112;-88